sensor_id;sensor_type;location;lat;lon;timestamp;pressure;altitude;pressure_sealevel;temperature;humidity
51986;BME280;38002;53.296;6.600;2023-04-28T00:03:36;101964.06;;;5.12;79.29
51986;BME280;38002;53.296;6.600;2023-04-28T00:08:37;101951.63;;;5.09;80.14
51986;BME280;38002;53.296;6.600;2023-04-28T00:13:37;101946.66;;;5.03;80.26
51986;BME280;38002;53.296;6.600;2023-04-28T00:18:38;101938.00;;;4.98;80.28
51986;BME280;38002;53.296;6.600;2023-04-28T00:23:38;101942.75;;;4.94;80.07
51986;BME280;38002;53.296;6.600;2023-04-28T00:28:39;101937.72;;;4.88;80.49
51986;BME280;38002;53.296;6.600;2023-04-28T00:33:41;101924.56;;;4.84;80.00
51986;BME280;38002;53.296;6.600;2023-04-28T00:38:41;101910.53;;;4.79;83.23
51986;BME280;38002;53.296;6.600;2023-04-28T00:43:46;101905.63;;;4.71;80.63
51986;BME280;38002;53.296;6.600;2023-04-28T00:48:47;101896.88;;;4.68;80.25
51986;BME280;38002;53.296;6.600;2023-04-28T00:53:49;101897.28;;;4.62;80.64
51986;BME280;38002;53.296;6.600;2023-04-28T00:58:49;101892.19;;;4.57;80.97
51986;BME280;38002;53.296;6.600;2023-04-28T01:03:50;101880.00;;;4.51;80.83
51986;BME280;38002;53.296;6.600;2023-04-28T01:08:51;101872.00;;;4.50;80.86
51986;BME280;38002;53.296;6.600;2023-04-28T01:13:52;101861.44;;;4.47;81.14
51986;BME280;38002;53.296;6.600;2023-04-28T01:18:53;101859.25;;;4.39;80.83
51986;BME280;38002;53.296;6.600;2023-04-28T01:23:55;101870.00;;;4.39;81.30
51986;BME280;38002;53.296;6.600;2023-04-28T01:28:55;101870.19;;;4.36;81.10
51986;BME280;38002;53.296;6.600;2023-04-28T01:33:56;101868.28;;;4.38;81.46
51986;BME280;38002;53.296;6.600;2023-04-28T01:38:56;101862.88;;;4.38;80.81
51986;BME280;38002;53.296;6.600;2023-04-28T01:43:57;101841.25;;;4.40;80.95
51986;BME280;38002;53.296;6.600;2023-04-28T01:48:59;101845.56;;;4.42;80.82
51986;BME280;38002;53.296;6.600;2023-04-28T01:54:00;101830.06;;;4.46;81.26
51986;BME280;38002;53.296;6.600;2023-04-28T01:59:00;101815.75;;;4.45;81.12
51986;BME280;38002;53.296;6.600;2023-04-28T02:04:01;101804.97;;;4.45;81.59
51986;BME280;38002;53.296;6.600;2023-04-28T02:09:01;101787.84;;;4.46;81.83
51986;BME280;38002;53.296;6.600;2023-04-28T02:14:02;101771.59;;;4.48;81.59
51986;BME280;38002;53.296;6.600;2023-04-28T02:19:02;101768.78;;;4.49;82.15
51986;BME280;38002;53.296;6.600;2023-04-28T02:24:03;101758.78;;;4.51;81.49
51986;BME280;38002;53.296;6.600;2023-04-28T02:29:03;101752.25;;;4.55;81.76
51986;BME280;38002;53.296;6.600;2023-04-28T02:34:04;101734.13;;;4.57;82.01
51986;BME280;38002;53.296;6.600;2023-04-28T02:39:04;101728.75;;;4.57;81.95
51986;BME280;38002;53.296;6.600;2023-04-28T02:44:05;101734.91;;;4.60;81.88
51986;BME280;38002;53.296;6.600;2023-04-28T02:49:05;101741.06;;;4.62;82.09
51986;BME280;38002;53.296;6.600;2023-04-28T02:54:06;101729.00;;;4.67;81.55
51986;BME280;38002;53.296;6.600;2023-04-28T02:59:07;101718.03;;;4.70;81.85
51986;BME280;38002;53.296;6.600;2023-04-28T03:04:07;101712.44;;;4.73;81.87
51986;BME280;38002;53.296;6.600;2023-04-28T03:09:08;101710.38;;;4.77;81.85
51986;BME280;38002;53.296;6.600;2023-04-28T03:14:09;101695.09;;;4.77;82.46
51986;BME280;38002;53.296;6.600;2023-04-28T03:19:10;101685.91;;;4.80;82.60
51986;BME280;38002;53.296;6.600;2023-04-28T03:24:11;101682.28;;;4.81;82.92
51986;BME280;38002;53.296;6.600;2023-04-28T03:29:11;101675.91;;;4.82;83.02
51986;BME280;38002;53.296;6.600;2023-04-28T03:34:11;101669.56;;;4.83;83.18
51986;BME280;38002;53.296;6.600;2023-04-28T03:39:12;101654.06;;;4.86;83.30
51986;BME280;38002;53.296;6.600;2023-04-28T03:44:12;101643.13;;;4.88;83.36
51986;BME280;38002;53.296;6.600;2023-04-28T03:49:13;101639.63;;;4.87;83.75
51986;BME280;38002;53.296;6.600;2023-04-28T03:54:13;101630.53;;;4.88;83.76
51986;BME280;38002;53.296;6.600;2023-04-28T03:59:14;101618.56;;;4.80;83.33
51986;BME280;38002;53.296;6.600;2023-04-28T04:04:14;101635.94;;;4.88;83.21
51986;BME280;38002;53.296;6.600;2023-04-28T04:09:15;101633.34;;;4.87;83.36
51986;BME280;38002;53.296;6.600;2023-04-28T04:14:16;101623.53;;;4.86;83.65
51986;BME280;38002;53.296;6.600;2023-04-28T04:19:16;101626.25;;;4.86;83.96
51986;BME280;38002;53.296;6.600;2023-04-28T04:24:17;101623.53;;;4.86;83.70
51986;BME280;38002;53.296;6.600;2023-04-28T04:29:17;101626.97;;;4.88;83.72
51986;BME280;38002;53.296;6.600;2023-04-28T04:34:18;101619.66;;;4.90;84.17
51986;BME280;38002;53.296;6.600;2023-04-28T04:39:18;101609.63;;;4.92;84.85
51986;BME280;38002;53.296;6.600;2023-04-28T04:44:19;101590.56;;;4.95;84.52
51986;BME280;38002;53.296;6.600;2023-04-28T04:49:19;101580.41;;;4.98;84.78
51986;BME280;38002;53.296;6.600;2023-04-28T04:54:19;101586.44;;;5.02;84.37
51986;BME280;38002;53.296;6.600;2023-04-28T04:59:20;101587.00;;;5.07;84.89
51986;BME280;38002;53.296;6.600;2023-04-28T05:04:20;101583.09;;;5.11;84.85
51986;BME280;38002;53.296;6.600;2023-04-28T05:09:21;101593.47;;;5.17;84.58
51986;BME280;38002;53.296;6.600;2023-04-28T05:14:22;101569.50;;;5.25;84.75
51986;BME280;38002;53.296;6.600;2023-04-28T05:19:23;101568.19;;;5.31;84.87
51986;BME280;38002;53.296;6.600;2023-04-28T05:24:23;101551.81;;;5.34;85.04
51986;BME280;38002;53.296;6.600;2023-04-28T05:29:24;101541.41;;;5.40;84.61
51986;BME280;38002;53.296;6.600;2023-04-28T05:34:24;101543.53;;;5.48;84.67
51986;BME280;38002;53.296;6.600;2023-04-28T05:39:25;101541.28;;;5.55;84.14
51986;BME280;38002;53.296;6.600;2023-04-28T05:44:26;101555.16;;;5.61;84.57
51986;BME280;38002;53.296;6.600;2023-04-28T05:49:26;101548.22;;;5.70;84.16
51986;BME280;38002;53.296;6.600;2023-04-28T05:54:27;101551.09;;;5.79;84.16
51986;BME280;38002;53.296;6.600;2023-04-28T05:59:27;101539.63;;;5.88;83.80
51986;BME280;38002;53.296;6.600;2023-04-28T06:04:29;101532.44;;;6.00;84.07
51986;BME280;38002;53.296;6.600;2023-04-28T06:09:30;101513.97;;;6.07;83.82
51986;BME280;38002;53.296;6.600;2023-04-28T06:14:30;101525.13;;;6.13;83.13
51986;BME280;38002;53.296;6.600;2023-04-28T06:19:31;101521.97;;;6.19;82.67
51986;BME280;38002;53.296;6.600;2023-04-28T06:24:32;101521.38;;;6.27;82.58
51986;BME280;38002;53.296;6.600;2023-04-28T06:29:32;101515.28;;;6.36;82.52
51986;BME280;38002;53.296;6.600;2023-04-28T06:34:34;101506.34;;;6.47;82.28
51986;BME280;38002;53.296;6.600;2023-04-28T06:39:34;101510.78;;;6.59;81.40
51986;BME280;38002;53.296;6.600;2023-04-28T06:44:36;101510.56;;;6.73;81.53
51986;BME280;38002;53.296;6.600;2023-04-28T06:49:36;101503.16;;;6.86;80.97
51986;BME280;38002;53.296;6.600;2023-04-28T06:54:37;101503.06;;;6.99;80.86
51986;BME280;38002;53.296;6.600;2023-04-28T06:59:37;101496.28;;;7.04;80.07
51986;BME280;38002;53.296;6.600;2023-04-28T07:04:38;101488.41;;;7.12;80.40
51986;BME280;38002;53.296;6.600;2023-04-28T07:09:39;101474.41;;;7.18;79.66
51986;BME280;38002;53.296;6.600;2023-04-28T07:14:39;101471.81;;;7.28;80.09
51986;BME280;38002;53.296;6.600;2023-04-28T07:19:40;101472.91;;;7.37;79.14
51986;BME280;38002;53.296;6.600;2023-04-28T07:24:40;101466.72;;;7.46;79.57
51986;BME280;38002;53.296;6.600;2023-04-28T07:29:41;101474.09;;;7.55;79.81
51986;BME280;38002;53.296;6.600;2023-04-28T07:34:41;101483.28;;;7.63;78.88
51986;BME280;38002;53.296;6.600;2023-04-28T07:39:41;101482.03;;;7.67;78.48
51986;BME280;38002;53.296;6.600;2023-04-28T07:44:42;101476.63;;;7.67;78.58
51986;BME280;38002;53.296;6.600;2023-04-28T07:49:42;101459.38;;;7.68;78.24
51986;BME280;38002;53.296;6.600;2023-04-28T07:54:43;101445.44;;;7.73;78.50
51986;BME280;38002;53.296;6.600;2023-04-28T07:59:43;101452.09;;;7.80;78.58
51986;BME280;38002;53.296;6.600;2023-04-28T08:04:44;101442.72;;;7.84;78.09
51986;BME280;38002;53.296;6.600;2023-04-28T08:09:44;101451.31;;;7.89;78.77
51986;BME280;38002;53.296;6.600;2023-04-28T08:14:47;101452.88;;;7.92;77.95
51986;BME280;38002;53.296;6.600;2023-04-28T08:19:47;101442.16;;;7.90;77.75
51986;BME280;38002;53.296;6.600;2023-04-28T08:24:48;101445.75;;;7.91;78.00
51986;BME280;38002;53.296;6.600;2023-04-28T08:29:48;101458.88;;;7.95;77.69
51986;BME280;38002;53.296;6.600;2023-04-28T08:34:49;101459.63;;;7.97;78.50
51986;BME280;38002;53.296;6.600;2023-04-28T08:39:49;101450.25;;;8.01;77.73
51986;BME280;38002;53.296;6.600;2023-04-28T08:44:50;101450.56;;;8.08;78.46
51986;BME280;38002;53.296;6.600;2023-04-28T08:50:03;101440.78;;;8.16;78.07
51986;BME280;38002;53.296;6.600;2023-04-28T08:55:07;101443.84;;;8.23;78.10
51986;BME280;38002;53.296;6.600;2023-04-28T09:00:09;101438.03;;;8.28;78.21
51986;BME280;38002;53.296;6.600;2023-04-28T09:05:11;101439.63;;;8.30;78.14
51986;BME280;38002;53.296;6.600;2023-04-28T09:10:15;101429.00;;;8.38;78.58
51986;BME280;38002;53.296;6.600;2023-04-28T09:15:28;101427.50;;;8.55;78.79
51986;BME280;38002;53.296;6.600;2023-04-28T09:20:30;101411.63;;;8.71;78.06
51986;BME280;38002;53.296;6.600;2023-04-28T09:25:31;101403.41;;;8.92;78.97
51986;BME280;38002;53.296;6.600;2023-04-28T09:30:37;101376.84;;;8.95;77.77
51986;BME280;38002;53.296;6.600;2023-04-28T09:35:40;101385.44;;;9.00;78.16
51986;BME280;38002;53.296;6.600;2023-04-28T09:40:50;101383.16;;;9.15;77.41
51986;BME280;38002;53.296;6.600;2023-04-28T09:45:52;101365.50;;;9.40;77.89
51986;BME280;38002;53.296;6.600;2023-04-28T09:50:53;101360.75;;;9.80;76.86
51986;BME280;38002;53.296;6.600;2023-04-28T09:55:59;101353.38;;;10.38;77.50
51986;BME280;38002;53.296;6.600;2023-04-28T10:01:00;101336.94;;;11.12;75.84
51986;BME280;38002;53.296;6.600;2023-04-28T10:06:01;101339.09;;;11.62;74.94
51986;BME280;38002;53.296;6.600;2023-04-28T10:11:02;101332.84;;;11.87;74.52
51986;BME280;38002;53.296;6.600;2023-04-28T10:16:03;101325.25;;;12.16;74.38
51986;BME280;38002;53.296;6.600;2023-04-28T10:21:05;101314.34;;;12.16;73.74
51986;BME280;38002;53.296;6.600;2023-04-28T10:26:12;101307.91;;;12.00;74.34
51986;BME280;38002;53.296;6.600;2023-04-28T10:31:15;101309.09;;;11.97;74.26
51986;BME280;38002;53.296;6.600;2023-04-28T10:36:50;101312.19;;;12.02;74.39
51986;BME280;38002;53.296;6.600;2023-04-28T10:41:54;101293.75;;;11.96;74.38
51986;BME280;38002;53.296;6.600;2023-04-28T10:47:05;101298.78;;;11.83;73.55
51986;BME280;38002;53.296;6.600;2023-04-28T10:57:39;101298.91;;;11.73;74.75
51986;BME280;38002;53.296;6.600;2023-04-28T11:02:40;101300.16;;;11.69;74.90
51986;BME280;38002;53.296;6.600;2023-04-28T11:13:29;101294.44;;;11.55;76.60
51986;BME280;38002;53.296;6.600;2023-04-28T11:23:44;101286.28;;;11.37;77.24
51986;BME280;38002;53.296;6.600;2023-04-28T11:28:55;101291.03;;;11.35;77.52
51986;BME280;38002;53.296;6.600;2023-04-28T11:34:11;101267.38;;;11.35;79.60
51986;BME280;38002;53.296;6.600;2023-04-28T11:39:13;101262.19;;;11.42;78.72
51986;BME280;38002;53.296;6.600;2023-04-28T11:44:17;101248.03;;;11.38;79.01
51986;BME280;38002;53.296;6.600;2023-04-28T11:49:18;101269.00;;;11.46;79.44
51986;BME280;38002;53.296;6.600;2023-04-28T11:54:20;101259.38;;;11.34;79.44
51986;BME280;38002;53.296;6.600;2023-04-28T11:59:29;101258.41;;;11.17;80.21
51986;BME280;38002;53.296;6.600;2023-04-28T12:04:32;101254.09;;;11.15;80.21
51986;BME280;38002;53.296;6.600;2023-04-28T12:09:38;101251.00;;;11.10;80.33
51986;BME280;38002;53.296;6.600;2023-04-28T12:15:05;101242.13;;;11.08;82.04
51986;BME280;38002;53.296;6.600;2023-04-28T12:25:09;101248.66;;;11.15;80.95
51986;BME280;38002;53.296;6.600;2023-04-28T12:35:24;101240.41;;;11.07;81.89
51986;BME280;38002;53.296;6.600;2023-04-28T12:40:24;101236.44;;;11.01;81.93
51986;BME280;38002;53.296;6.600;2023-04-28T12:45:25;101244.16;;;11.06;82.21
51986;BME280;38002;53.296;6.600;2023-04-28T12:50:26;101231.88;;;11.02;82.84
51986;BME280;38002;53.296;6.600;2023-04-28T12:55:28;101228.59;;;10.98;82.73
51986;BME280;38002;53.296;6.600;2023-04-28T13:00:29;101219.59;;;10.98;83.03
51986;BME280;38002;53.296;6.600;2023-04-28T13:05:30;101219.72;;;10.96;83.17
51986;BME280;38002;53.296;6.600;2023-04-28T13:10:31;101207.06;;;11.05;83.66
51986;BME280;38002;53.296;6.600;2023-04-28T13:15:31;101193.31;;;11.06;84.27
51986;BME280;38002;53.296;6.600;2023-04-28T13:20:32;101206.44;;;11.11;84.18
51986;BME280;38002;53.296;6.600;2023-04-28T13:25:32;101200.00;;;11.12;84.25
51986;BME280;38002;53.296;6.600;2023-04-28T13:30:33;101203.31;;;11.06;83.93
51986;BME280;38002;53.296;6.600;2023-04-28T13:35:34;101202.56;;;10.96;84.29
51986;BME280;38002;53.296;6.600;2023-04-28T13:40:34;101191.59;;;10.87;85.07
51986;BME280;38002;53.296;6.600;2023-04-28T13:45:35;101195.56;;;10.75;85.45
51986;BME280;38002;53.296;6.600;2023-04-28T13:50:35;101191.91;;;10.67;85.62
51986;BME280;38002;53.296;6.600;2023-04-28T13:55:36;101207.69;;;10.63;85.17
51986;BME280;38002;53.296;6.600;2023-04-28T14:00:36;101201.56;;;10.61;85.61
51986;BME280;38002;53.296;6.600;2023-04-28T14:05:38;101205.28;;;10.60;85.15
51986;BME280;38002;53.296;6.600;2023-04-28T14:10:38;101209.00;;;10.59;85.11
51986;BME280;38002;53.296;6.600;2023-04-28T14:15:39;101211.88;;;10.58;85.75
51986;BME280;38002;53.296;6.600;2023-04-28T14:20:39;101215.44;;;10.58;85.37
51986;BME280;38002;53.296;6.600;2023-04-28T14:25:40;101217.03;;;10.61;85.61
51986;BME280;38002;53.296;6.600;2023-04-28T14:30:40;101201.94;;;10.66;86.20
51986;BME280;38002;53.296;6.600;2023-04-28T14:35:41;101193.47;;;10.69;85.85
51986;BME280;38002;53.296;6.600;2023-04-28T14:40:41;101195.75;;;10.74;85.89
51986;BME280;38002;53.296;6.600;2023-04-28T14:45:42;101182.97;;;10.74;86.36
51986;BME280;38002;53.296;6.600;2023-04-28T14:50:43;101184.28;;;10.70;86.42
51986;BME280;38002;53.296;6.600;2023-04-28T14:55:45;101186.94;;;10.62;86.55
51986;BME280;38002;53.296;6.600;2023-04-28T15:00:45;101189.56;;;10.54;87.05
51986;BME280;38002;53.296;6.600;2023-04-28T15:05:46;101151.09;;;10.49;87.62
51986;BME280;38002;53.296;6.600;2023-04-28T15:10:47;101131.00;;;10.42;88.22
51986;BME280;38002;53.296;6.600;2023-04-28T15:15:47;101144.19;;;10.37;87.89
51986;BME280;38002;53.296;6.600;2023-04-28T15:20:48;101144.50;;;10.34;87.88
51986;BME280;38002;53.296;6.600;2023-04-28T15:25:48;101149.22;;;10.32;88.02
51986;BME280;38002;53.296;6.600;2023-04-28T15:30:52;101145.03;;;10.37;88.71
51986;BME280;38002;53.296;6.600;2023-04-28T15:35:53;101136.28;;;10.43;88.37
51986;BME280;38002;53.296;6.600;2023-04-28T15:40:53;101130.94;;;10.52;88.68
51986;BME280;38002;53.296;6.600;2023-04-28T15:45:54;101142.34;;;10.55;89.15
51986;BME280;38002;53.296;6.600;2023-04-28T15:50:54;101137.91;;;10.54;89.07
51986;BME280;38002;53.296;6.600;2023-04-28T15:55:56;101132.66;;;10.53;88.70
51986;BME280;38002;53.296;6.600;2023-04-28T16:00:56;101140.63;;;10.54;92.74
51986;BME280;38002;53.296;6.600;2023-04-28T16:05:58;101139.22;;;10.50;89.72
51986;BME280;38002;53.296;6.600;2023-04-28T16:11:00;101137.38;;;10.51;89.36
51986;BME280;38002;53.296;6.600;2023-04-28T16:16:03;101137.22;;;10.52;89.32
51986;BME280;38002;53.296;6.600;2023-04-28T16:21:04;101135.50;;;10.51;89.46
51986;BME280;38002;53.296;6.600;2023-04-28T16:26:04;101142.94;;;10.49;88.92
51986;BME280;38002;53.296;6.600;2023-04-28T16:31:05;101141.41;;;10.46;89.53
51986;BME280;38002;53.296;6.600;2023-04-28T16:36:05;101150.81;;;10.52;89.26
51986;BME280;38002;53.296;6.600;2023-04-28T16:41:06;101156.06;;;10.54;88.74
51986;BME280;38002;53.296;6.600;2023-04-28T16:46:06;101146.38;;;10.51;89.33
51986;BME280;38002;53.296;6.600;2023-04-28T16:51:10;101144.81;;;10.48;89.49
51986;BME280;38002;53.296;6.600;2023-04-28T16:56:10;101144.13;;;10.46;89.58
51986;BME280;38002;53.296;6.600;2023-04-28T17:01:11;101144.44;;;10.43;89.38
51986;BME280;38002;53.296;6.600;2023-04-28T17:06:11;101150.97;;;10.51;89.07
51986;BME280;38002;53.296;6.600;2023-04-28T17:11:15;101148.09;;;10.52;89.29
51986;BME280;38002;53.296;6.600;2023-04-28T17:16:16;101155.94;;;10.55;88.83
51986;BME280;38002;53.296;6.600;2023-04-28T17:21:17;101159.19;;;10.59;88.99
51986;BME280;38002;53.296;6.600;2023-04-28T17:26:17;101175.19;;;10.62;89.32
51986;BME280;38002;53.296;6.600;2023-04-28T17:31:18;101177.91;;;10.62;89.40
51986;BME280;38002;53.296;6.600;2023-04-28T17:36:19;101168.06;;;10.61;88.94
51986;BME280;38002;53.296;6.600;2023-04-28T17:41:22;101185.38;;;10.60;88.98
51986;BME280;38002;53.296;6.600;2023-04-28T17:46:22;101178.38;;;10.57;88.59
51986;BME280;38002;53.296;6.600;2023-04-28T17:51:23;101189.25;;;10.57;89.16
51986;BME280;38002;53.296;6.600;2023-04-28T17:56:24;101199.44;;;10.55;88.71
51986;BME280;38002;53.296;6.600;2023-04-28T18:01:24;101202.31;;;10.54;88.71
51986;BME280;38002;53.296;6.600;2023-04-28T18:06:25;101199.75;;;10.52;88.86
51986;BME280;38002;53.296;6.600;2023-04-28T18:11:27;101204.47;;;10.50;88.76
51986;BME280;38002;53.296;6.600;2023-04-28T18:16:28;101207.91;;;10.52;88.94
51986;BME280;38002;53.296;6.600;2023-04-28T18:21:28;101216.06;;;10.52;88.67
51986;BME280;38002;53.296;6.600;2023-04-28T18:26:29;101214.34;;;10.51;88.89
51986;BME280;38002;53.296;6.600;2023-04-28T18:31:29;101224.50;;;10.49;88.95
51986;BME280;38002;53.296;6.600;2023-04-28T18:36:33;101235.69;;;10.46;88.93
51986;BME280;38002;53.296;6.600;2023-04-28T18:41:36;101234.28;;;10.42;88.70
51986;BME280;38002;53.296;6.600;2023-04-28T18:46:38;101241.72;;;10.40;88.67
51986;BME280;38002;53.296;6.600;2023-04-28T18:51:39;101231.34;;;10.35;89.20
51986;BME280;38002;53.296;6.600;2023-04-28T18:56:39;101239.94;;;10.31;89.47
51986;BME280;38002;53.296;6.600;2023-04-28T19:01:40;101242.94;;;10.28;89.45
51986;BME280;38002;53.296;6.600;2023-04-28T19:06:41;101250.41;;;10.26;88.86
51986;BME280;38002;53.296;6.600;2023-04-28T19:11:43;101262.59;;;10.22;90.92
51986;BME280;38002;53.296;6.600;2023-04-28T19:16:43;101274.16;;;10.24;89.34
51986;BME280;38002;53.296;6.600;2023-04-28T19:21:43;101283.31;;;10.23;88.95
51986;BME280;38002;53.296;6.600;2023-04-28T19:26:45;101294.34;;;10.21;89.53
51986;BME280;38002;53.296;6.600;2023-04-28T19:31:45;101306.22;;;10.20;89.23
51986;BME280;38002;53.296;6.600;2023-04-28T19:36:48;101315.69;;;10.16;88.79
51986;BME280;38002;53.296;6.600;2023-04-28T19:41:48;101317.63;;;10.14;88.85
51986;BME280;38002;53.296;6.600;2023-04-28T19:46:49;101321.53;;;10.12;89.62
51986;BME280;38002;53.296;6.600;2023-04-28T19:51:49;101334.56;;;10.08;89.76
51986;BME280;38002;53.296;6.600;2023-04-28T19:56:51;101339.97;;;10.08;89.20
51986;BME280;38002;53.296;6.600;2023-04-28T20:01:52;101335.69;;;10.06;89.50
51986;BME280;38002;53.296;6.600;2023-04-28T20:06:53;101338.00;;;10.00;89.90
51986;BME280;38002;53.296;6.600;2023-04-28T20:11:53;101360.44;;;10.02;89.55
51986;BME280;38002;53.296;6.600;2023-04-28T20:16:55;101366.72;;;10.03;89.96
51986;BME280;38002;53.296;6.600;2023-04-28T20:21:56;101352.59;;;9.99;89.13
51986;BME280;38002;53.296;6.600;2023-04-28T20:26:56;101363.47;;;9.99;89.75
51986;BME280;38002;53.296;6.600;2023-04-28T20:31:57;101368.16;;;9.97;89.29
51986;BME280;38002;53.296;6.600;2023-04-28T20:36:59;101377.34;;;9.96;89.46
51986;BME280;38002;53.296;6.600;2023-04-28T20:42:02;101383.03;;;9.93;89.55
51986;BME280;38002;53.296;6.600;2023-04-28T20:47:03;101392.34;;;9.91;89.47
51986;BME280;38002;53.296;6.600;2023-04-28T20:52:04;101387.34;;;9.86;89.55
51986;BME280;38002;53.296;6.600;2023-04-28T20:57:05;101401.06;;;9.85;90.05
51986;BME280;38002;53.296;6.600;2023-04-28T21:02:08;101396.06;;;9.80;89.58
51986;BME280;38002;53.296;6.600;2023-04-28T21:07:08;101400.81;;;9.78;89.29
51986;BME280;38002;53.296;6.600;2023-04-28T21:12:09;101403.38;;;9.70;89.19
51986;BME280;38002;53.296;6.600;2023-04-28T21:17:09;101401.09;;;9.66;89.88
51986;BME280;38002;53.296;6.600;2023-04-28T21:22:10;101411.94;;;9.66;89.36
51986;BME280;38002;53.296;6.600;2023-04-28T21:27:10;101417.94;;;9.60;89.94
51986;BME280;38002;53.296;6.600;2023-04-28T21:32:11;101425.38;;;9.57;90.40
51986;BME280;38002;53.296;6.600;2023-04-28T21:37:12;101433.09;;;9.52;90.24
51986;BME280;38002;53.296;6.600;2023-04-28T21:42:13;101446.50;;;9.54;89.77
51986;BME280;38002;53.296;6.600;2023-04-28T21:47:13;101447.53;;;9.53;89.70
51986;BME280;38002;53.296;6.600;2023-04-28T21:52:15;101444.94;;;9.51;89.60
51986;BME280;38002;53.296;6.600;2023-04-28T21:57:16;101460.38;;;9.51;89.88
51986;BME280;38002;53.296;6.600;2023-04-28T22:02:16;101466.09;;;9.48;90.07
51986;BME280;38002;53.296;6.600;2023-04-28T22:07:17;101481.53;;;9.47;90.18
51986;BME280;38002;53.296;6.600;2023-04-28T22:12:17;101485.34;;;9.45;90.48
51986;BME280;38002;53.296;6.600;2023-04-28T22:17:18;101495.63;;;9.41;90.38
51986;BME280;38002;53.296;6.600;2023-04-28T22:22:19;101496.03;;;9.37;89.96
51986;BME280;38002;53.296;6.600;2023-04-28T22:27:19;101505.91;;;9.38;89.65
51986;BME280;38002;53.296;6.600;2023-04-28T22:32:20;101517.19;;;9.33;90.52
51986;BME280;38002;53.296;6.600;2023-04-28T22:37:21;101527.91;;;9.35;90.60
51986;BME280;38002;53.296;6.600;2023-04-28T22:42:21;101521.75;;;9.33;91.12
51986;BME280;38002;53.296;6.600;2023-04-28T22:47:21;101529.19;;;9.31;90.13
51986;BME280;38002;53.296;6.600;2023-04-28T22:52:22;101532.88;;;9.30;90.60
51986;BME280;38002;53.296;6.600;2023-04-28T22:57:23;101534.88;;;9.28;90.79
51986;BME280;38002;53.296;6.600;2023-04-28T23:02:24;101544.91;;;9.27;90.83
51986;BME280;38002;53.296;6.600;2023-04-28T23:07:24;101547.72;;;9.26;90.25
51986;BME280;38002;53.296;6.600;2023-04-28T23:12:25;101545.16;;;9.24;90.33
51986;BME280;38002;53.296;6.600;2023-04-28T23:17:25;101549.88;;;9.22;90.86
51986;BME280;38002;53.296;6.600;2023-04-28T23:22:26;101556.69;;;9.17;90.16
51986;BME280;38002;53.296;6.600;2023-04-28T23:27:26;101551.53;;;9.14;91.13
51986;BME280;38002;53.296;6.600;2023-04-28T23:32:27;101555.38;;;9.11;90.75
51986;BME280;38002;53.296;6.600;2023-04-28T23:37:27;101555.94;;;9.05;90.71
51986;BME280;38002;53.296;6.600;2023-04-28T23:42:28;101562.22;;;9.05;90.85
51986;BME280;38002;53.296;6.600;2023-04-28T23:47:28;101569.63;;;9.03;90.09
51986;BME280;38002;53.296;6.600;2023-04-28T23:52:29;101569.91;;;9.00;90.92
51986;BME280;38002;53.296;6.600;2023-04-28T23:57:30;101575.56;;;8.97;90.72
